SBI5341 UNNT-UNOO
Flight info
| Callsign | SBI5341 |
|---|---|
| Flight time | 1h 3m |
| Altitude | 36000 |
| Route | OGAMA1K OGAMA A308 OSNAB G828 SZ A487 URUKI A844 RUMOD RUMOD5B |
| Aircraft | A320/M-SDE3FGHIRWY/LB1 |
Departure
| Time | 2026-04-25 14:20 |
|---|---|
| Airport | Novosibirsk Tolmachevo Airport (UNNT) |
Arrival
| Time | 2026-04-25 15:23 |
|---|---|
| Airport | Omsk Central Airport (UNOO) |
| Time | Latitude | Longitude | Altitude | Speed | Heading |
|---|---|---|---|---|---|
| 2026-04-25 13:57 | 55.01078 | 82.66398 | 373 ft | 0 kts | 171° |
| 2026-04-25 14:16 | 55.01074 | 82.66399 | 373 ft | 4 kts | 171° |
| 2026-04-25 14:16 | 55.01040 | 82.66432 | 373 ft | 11 kts | 120° |
| 2026-04-25 14:17 | 55.01100 | 82.66649 | 373 ft | 13 kts | 16° |
| 2026-04-25 14:17 | 55.01159 | 82.66647 | 373 ft | 12 kts | 353° |
| 2026-04-25 14:17 | 55.01238 | 82.66627 | 373 ft | 11 kts | 352° |
| 2026-04-25 14:17 | 55.01263 | 82.66620 | 373 ft | 0 kts | 352° |
| 2026-04-25 14:19 | 55.01294 | 82.66613 | 373 ft | 14 kts | 352° |
| 2026-04-25 14:19 | 55.01369 | 82.66478 | 375 ft | 17 kts | 244° |
| 2026-04-25 14:19 | 55.01340 | 82.66136 | 372 ft | 55 kts | 261° |
| 2026-04-25 14:19 | 55.01247 | 82.65096 | 373 ft | 118 kts | 261° |
| 2026-04-25 14:20 | 55.01087 | 82.63365 | 374 ft | 166 kts | 261° |
| 2026-04-25 14:20 | 55.00969 | 82.62018 | 693 ft | 168 kts | 259° |
| 2026-04-25 14:20 | 55.00743 | 82.59362 | 1654 ft | 168 kts | 257° |
| 2026-04-25 14:20 | 55.00545 | 82.57260 | 2044 ft | 186 kts | 257° |
| 2026-04-25 14:21 | 55.00323 | 82.54890 | 2409 ft | 202 kts | 258° |
| 2026-04-25 14:21 | 55.00330 | 82.52368 | 2792 ft | 226 kts | 286° |
| 2026-04-25 14:21 | 55.01230 | 82.49934 | 3172 ft | 255 kts | 309° |
| 2026-04-25 14:21 | 55.02562 | 82.47752 | 3864 ft | 267 kts | 317° |
| 2026-04-25 14:22 | 55.04013 | 82.45680 | 4761 ft | 271 kts | 318° |
| 2026-04-25 14:22 | 55.05463 | 82.43624 | 5587 ft | 275 kts | 317° |
| 2026-04-25 14:22 | 55.06937 | 82.41466 | 5912 ft | 276 kts | 316° |
| 2026-04-25 14:22 | 55.08399 | 82.39237 | 5997 ft | 275 kts | 315° |
| 2026-04-25 14:23 | 55.09798 | 82.37036 | 6007 ft | 274 kts | 315° |
| 2026-04-25 14:23 | 55.11200 | 82.34780 | 6007 ft | 274 kts | 314° |
| 2026-04-25 14:23 | 55.12587 | 82.32514 | 6009 ft | 274 kts | 314° |
| 2026-04-25 14:23 | 55.13978 | 82.30231 | 6008 ft | 274 kts | 314° |
| 2026-04-25 14:24 | 55.15363 | 82.27953 | 6003 ft | 273 kts | 314° |
| 2026-04-25 14:24 | 55.16748 | 82.25673 | 6003 ft | 274 kts | 314° |
| 2026-04-25 14:24 | 55.18137 | 82.23390 | 6002 ft | 274 kts | 314° |
| 2026-04-25 14:24 | 55.19526 | 82.21112 | 6003 ft | 274 kts | 314° |
| 2026-04-25 14:25 | 55.20900 | 82.18805 | 6001 ft | 273 kts | 309° |
| 2026-04-25 14:25 | 55.21983 | 82.16102 | 6065 ft | 272 kts | 294° |
| 2026-04-25 14:25 | 55.22734 | 82.13036 | 6773 ft | 275 kts | 290° |
| 2026-04-25 14:25 | 55.23227 | 82.11005 | 6953 ft | 272 kts | 291° |
| 2026-04-25 14:26 | 55.24229 | 82.06969 | 7065 ft | 269 kts | 291° |
| 2026-04-25 14:26 | 55.24979 | 82.03971 | 7065 ft | 268 kts | 291° |
| 2026-04-25 14:26 | 55.25726 | 82.00973 | 7065 ft | 268 kts | 291° |
| 2026-04-25 14:26 | 55.26461 | 81.98013 | 7064 ft | 268 kts | 291° |
| 2026-04-25 14:27 | 55.27211 | 81.94979 | 7066 ft | 268 kts | 291° |
| 2026-04-25 14:27 | 55.27942 | 81.92014 | 7064 ft | 268 kts | 291° |
| 2026-04-25 14:27 | 55.28685 | 81.88978 | 7066 ft | 268 kts | 290° |
| 2026-04-25 14:27 | 55.29407 | 81.86017 | 7065 ft | 268 kts | 290° |
| 2026-04-25 14:28 | 55.30137 | 81.83011 | 7057 ft | 267 kts | 290° |
| 2026-04-25 14:28 | 55.30867 | 81.80008 | 7057 ft | 267 kts | 290° |
| 2026-04-25 14:28 | 55.31596 | 81.77014 | 7058 ft | 267 kts | 290° |
| 2026-04-25 14:28 | 55.32326 | 81.74017 | 7055 ft | 267 kts | 290° |
| 2026-04-25 14:29 | 55.33053 | 81.71022 | 7056 ft | 267 kts | 290° |
| 2026-04-25 14:29 | 55.33782 | 81.68024 | 7055 ft | 267 kts | 290° |
| 2026-04-25 14:29 | 55.34511 | 81.65023 | 7053 ft | 266 kts | 290° |
| 2026-04-25 14:29 | 55.35235 | 81.62031 | 7051 ft | 266 kts | 290° |
| 2026-04-25 14:30 | 55.35956 | 81.59036 | 7051 ft | 266 kts | 290° |
| 2026-04-25 14:30 | 55.37395 | 81.53042 | 7047 ft | 266 kts | 290° |
| 2026-04-25 14:30 | 55.38117 | 81.50043 | 7046 ft | 266 kts | 290° |
| 2026-04-25 14:31 | 55.38840 | 81.47046 | 7050 ft | 266 kts | 290° |
| 2026-04-25 14:31 | 55.39569 | 81.44011 | 7633 ft | 270 kts | 290° |
| 2026-04-25 14:31 | 55.40300 | 81.40974 | 8616 ft | 269 kts | 290° |
| 2026-04-25 14:31 | 55.41031 | 81.37938 | 9525 ft | 270 kts | 290° |
| 2026-04-25 14:32 | 55.41767 | 81.34879 | 10337 ft | 274 kts | 290° |
| 2026-04-25 14:32 | 55.42537 | 81.31665 | 10633 ft | 297 kts | 290° |
| 2026-04-25 14:32 | 55.43370 | 81.28184 | 10866 ft | 319 kts | 290° |
| 2026-04-25 14:32 | 55.44242 | 81.24531 | 11396 ft | 328 kts | 290° |
| 2026-04-25 14:33 | 55.45132 | 81.20804 | 12092 ft | 332 kts | 289° |
| 2026-04-25 14:33 | 55.46031 | 81.17031 | 12804 ft | 336 kts | 289° |
| 2026-04-25 14:33 | 55.46896 | 81.13192 | 13492 ft | 338 kts | 284° |
| 2026-04-25 14:33 | 55.47489 | 81.09177 | 14154 ft | 340 kts | 280° |
| 2026-04-25 14:34 | 55.48050 | 81.05108 | 14770 ft | 343 kts | 280° |
| 2026-04-25 14:34 | 55.48617 | 81.00991 | 15384 ft | 347 kts | 280° |
| 2026-04-25 14:34 | 55.49189 | 80.96839 | 15993 ft | 351 kts | 280° |
| 2026-04-25 14:34 | 55.49766 | 80.92632 | 16589 ft | 354 kts | 280° |
| 2026-04-25 14:35 | 55.50343 | 80.88400 | 17185 ft | 358 kts | 280° |
| 2026-04-25 14:35 | 55.50929 | 80.84107 | 17787 ft | 361 kts | 281° |
| 2026-04-25 14:35 | 55.51522 | 80.79780 | 18352 ft | 364 kts | 281° |
| 2026-04-25 14:35 | 55.52113 | 80.75460 | 18849 ft | 368 kts | 281° |
| 2026-04-25 14:36 | 55.52724 | 80.71005 | 19357 ft | 370 kts | 281° |
| 2026-04-25 14:36 | 55.53331 | 80.66567 | 19860 ft | 373 kts | 281° |
| 2026-04-25 14:36 | 55.53931 | 80.62140 | 20352 ft | 376 kts | 281° |
| 2026-04-25 14:36 | 55.54537 | 80.57642 | 20846 ft | 378 kts | 280° |
| 2026-04-25 14:37 | 55.55144 | 80.53101 | 21336 ft | 381 kts | 280° |
| 2026-04-25 14:37 | 55.55752 | 80.48533 | 21810 ft | 384 kts | 280° |
| 2026-04-25 14:37 | 55.56364 | 80.43922 | 22280 ft | 386 kts | 280° |
| 2026-04-25 14:37 | 55.56977 | 80.39285 | 22750 ft | 389 kts | 280° |
| 2026-04-25 14:38 | 55.57594 | 80.34621 | 23215 ft | 392 kts | 280° |
| 2026-04-25 14:38 | 55.58215 | 80.29910 | 23654 ft | 394 kts | 280° |
| 2026-04-25 14:38 | 55.58837 | 80.25178 | 24033 ft | 396 kts | 280° |
| 2026-04-25 14:38 | 55.59460 | 80.20419 | 24419 ft | 398 kts | 280° |
| 2026-04-25 14:39 | 55.60087 | 80.15631 | 24803 ft | 400 kts | 280° |
| 2026-04-25 14:39 | 55.60717 | 80.10823 | 25175 ft | 402 kts | 280° |
| 2026-04-25 14:39 | 55.61344 | 80.06002 | 25549 ft | 403 kts | 280° |
| 2026-04-25 14:39 | 55.61973 | 80.01148 | 25926 ft | 405 kts | 280° |
| 2026-04-25 14:40 | 55.62591 | 79.96269 | 26283 ft | 407 kts | 278° |
| 2026-04-25 14:40 | 55.62875 | 79.91300 | 26624 ft | 406 kts | 269° |
| 2026-04-25 14:40 | 55.62674 | 79.86385 | 26980 ft | 406 kts | 260° |
| 2026-04-25 14:40 | 55.62012 | 79.81462 | 27315 ft | 408 kts | 253° |
| 2026-04-25 14:41 | 55.61214 | 79.76702 | 27655 ft | 410 kts | 253° |
| 2026-04-25 14:41 | 55.60407 | 79.71857 | 27985 ft | 412 kts | 253° |
| 2026-04-25 14:41 | 55.59592 | 79.66983 | 28302 ft | 413 kts | 253° |
| 2026-04-25 14:41 | 55.58771 | 79.62096 | 28612 ft | 415 kts | 253° |
| 2026-04-25 14:42 | 55.57946 | 79.57193 | 28917 ft | 417 kts | 253° |
| 2026-04-25 14:42 | 55.57385 | 79.53872 | 29117 ft | 418 kts | 253° |
| 2026-04-25 14:42 | 55.56271 | 79.47326 | 29520 ft | 421 kts | 253° |
| 2026-04-25 14:42 | 55.55423 | 79.42371 | 29809 ft | 422 kts | 253° |
| 2026-04-25 14:43 | 55.54567 | 79.37388 | 30107 ft | 424 kts | 253° |
| 2026-04-25 14:43 | 55.53711 | 79.32421 | 30448 ft | 423 kts | 253° |
| 2026-04-25 14:43 | 55.52860 | 79.27459 | 30800 ft | 421 kts | 253° |
| 2026-04-25 14:43 | 55.52013 | 79.22520 | 31148 ft | 420 kts | 253° |
| 2026-04-25 14:44 | 55.51165 | 79.17593 | 31499 ft | 419 kts | 253° |
| 2026-04-25 14:44 | 55.50315 | 79.12676 | 31844 ft | 419 kts | 253° |
| 2026-04-25 14:44 | 55.49463 | 79.07770 | 32192 ft | 418 kts | 253° |
| 2026-04-25 14:44 | 55.48612 | 79.02886 | 32549 ft | 417 kts | 253° |
| 2026-04-25 14:45 | 55.47761 | 78.98006 | 32891 ft | 416 kts | 253° |
| 2026-04-25 14:45 | 55.46911 | 78.93144 | 33236 ft | 415 kts | 253° |
| 2026-04-25 14:45 | 55.46064 | 78.88301 | 33579 ft | 414 kts | 253° |
| 2026-04-25 14:45 | 55.45213 | 78.83463 | 33924 ft | 413 kts | 253° |
| 2026-04-25 14:46 | 55.44362 | 78.78649 | 34221 ft | 412 kts | 253° |
| 2026-04-25 14:46 | 55.43508 | 78.73813 | 34493 ft | 412 kts | 253° |
| 2026-04-25 14:46 | 55.42659 | 78.69003 | 34757 ft | 412 kts | 253° |
| 2026-04-25 14:46 | 55.41804 | 78.64189 | 35010 ft | 411 kts | 253° |
| 2026-04-25 14:47 | 55.40946 | 78.59387 | 35255 ft | 411 kts | 253° |
| 2026-04-25 14:47 | 55.40375 | 78.56207 | 35414 ft | 411 kts | 253° |
| 2026-04-25 14:47 | 55.39232 | 78.49850 | 35726 ft | 411 kts | 253° |
| 2026-04-25 14:47 | 55.38356 | 78.44992 | 35895 ft | 412 kts | 253° |
| 2026-04-25 14:48 | 55.36639 | 78.35445 | 35934 ft | 412 kts | 255° |
| 2026-04-25 14:48 | 55.36055 | 78.25496 | 35932 ft | 411 kts | 274° |
| 2026-04-25 14:49 | 55.36759 | 78.15497 | 35926 ft | 412 kts | 276° |
| 2026-04-25 14:49 | 55.37461 | 78.05502 | 35926 ft | 412 kts | 275° |
| 2026-04-25 14:50 | 55.38144 | 77.95514 | 35925 ft | 412 kts | 275° |
| 2026-04-25 14:50 | 55.38832 | 77.85502 | 35923 ft | 412 kts | 275° |
| 2026-04-25 14:51 | 55.39514 | 77.75516 | 35920 ft | 411 kts | 275° |
| 2026-04-25 14:51 | 55.40180 | 77.65502 | 35919 ft | 411 kts | 275° |
| 2026-04-25 14:52 | 55.40844 | 77.55516 | 35920 ft | 411 kts | 275° |
| 2026-04-25 14:52 | 55.41387 | 77.47200 | 35914 ft | 411 kts | 275° |
| 2026-04-25 14:53 | 55.42138 | 77.35574 | 35916 ft | 411 kts | 275° |
| 2026-04-25 14:53 | 55.42769 | 77.25568 | 35915 ft | 411 kts | 275° |
| 2026-04-25 14:54 | 55.43394 | 77.15569 | 35909 ft | 410 kts | 274° |
| 2026-04-25 14:54 | 55.44012 | 77.05593 | 35904 ft | 410 kts | 274° |
| 2026-04-25 14:55 | 55.44617 | 76.95603 | 35903 ft | 410 kts | 274° |
| 2026-04-25 14:55 | 55.45210 | 76.85609 | 35899 ft | 410 kts | 274° |
| 2026-04-25 14:56 | 55.45809 | 76.75627 | 35896 ft | 409 kts | 274° |
| 2026-04-25 14:56 | 55.46399 | 76.65713 | 35890 ft | 409 kts | 274° |
| 2026-04-25 14:57 | 55.46974 | 76.55721 | 35887 ft | 410 kts | 274° |
| 2026-04-25 14:57 | 55.47536 | 76.45737 | 35882 ft | 410 kts | 274° |
| 2026-04-25 14:58 | 55.48103 | 76.35747 | 35876 ft | 410 kts | 274° |
| 2026-04-25 14:58 | 55.48666 | 76.25745 | 35876 ft | 410 kts | 273° |
| 2026-04-25 14:59 | 55.49201 | 76.15735 | 35552 ft | 410 kts | 273° |
| 2026-04-25 14:59 | 55.49466 | 76.10732 | 35299 ft | 410 kts | 273° |
| 2026-04-25 14:59 | 55.49731 | 76.05742 | 35061 ft | 409 kts | 273° |
| 2026-04-25 15:00 | 55.49992 | 76.00747 | 34822 ft | 408 kts | 273° |
| 2026-04-25 15:00 | 55.50249 | 75.95768 | 34569 ft | 408 kts | 273° |
| 2026-04-25 15:00 | 55.50505 | 75.90783 | 34330 ft | 408 kts | 273° |
| 2026-04-25 15:00 | 55.50763 | 75.85805 | 34088 ft | 407 kts | 273° |
| 2026-04-25 15:01 | 55.51014 | 75.80828 | 33850 ft | 407 kts | 272° |
| 2026-04-25 15:01 | 55.51254 | 75.75852 | 33570 ft | 407 kts | 272° |
| 2026-04-25 15:01 | 55.51497 | 75.70874 | 33292 ft | 408 kts | 272° |
| 2026-04-25 15:01 | 55.51742 | 75.65882 | 33015 ft | 409 kts | 272° |
| 2026-04-25 15:02 | 55.51991 | 75.60858 | 32075 ft | 414 kts | 272° |
| 2026-04-25 15:02 | 55.52158 | 75.57489 | 31411 ft | 418 kts | 272° |
| 2026-04-25 15:02 | 55.52408 | 75.52360 | 30478 ft | 422 kts | 272° |
| 2026-04-25 15:02 | 55.52655 | 75.47212 | 29858 ft | 418 kts | 272° |
| 2026-04-25 15:03 | 55.52972 | 75.40512 | 28987 ft | 412 kts | 272° |
| 2026-04-25 15:03 | 55.53209 | 75.35481 | 28371 ft | 407 kts | 272° |
| 2026-04-25 15:03 | 55.53441 | 75.30529 | 27768 ft | 402 kts | 272° |
| 2026-04-25 15:03 | 55.53669 | 75.25637 | 27171 ft | 398 kts | 272° |
| 2026-04-25 15:04 | 55.53820 | 75.22354 | 26772 ft | 395 kts | 272° |
| 2026-04-25 15:04 | 55.54038 | 75.17548 | 26196 ft | 391 kts | 272° |
| 2026-04-25 15:04 | 55.54253 | 75.12776 | 25615 ft | 388 kts | 272° |
| 2026-04-25 15:04 | 55.54465 | 75.08046 | 25051 ft | 384 kts | 272° |
| 2026-04-25 15:05 | 55.54671 | 75.03372 | 24486 ft | 381 kts | 271° |
| 2026-04-25 15:05 | 55.54868 | 74.98726 | 23937 ft | 378 kts | 271° |
| 2026-04-25 15:05 | 55.55060 | 74.94169 | 23387 ft | 375 kts | 271° |
| 2026-04-25 15:06 | 55.55457 | 74.85048 | 22313 ft | 365 kts | 271° |
| 2026-04-25 15:06 | 55.55644 | 74.80667 | 21882 ft | 360 kts | 271° |
| 2026-04-25 15:06 | 55.55831 | 74.76235 | 21421 ft | 355 kts | 271° |
| 2026-04-25 15:06 | 55.56010 | 74.71969 | 20997 ft | 350 kts | 270° |
| 2026-04-25 15:07 | 55.56188 | 74.67703 | 20570 ft | 346 kts | 270° |
| 2026-04-25 15:07 | 55.56363 | 74.63487 | 20134 ft | 343 kts | 270° |
| 2026-04-25 15:07 | 55.56534 | 74.59306 | 19700 ft | 340 kts | 270° |
| 2026-04-25 15:07 | 55.56701 | 74.55166 | 19268 ft | 337 kts | 270° |
| 2026-04-25 15:08 | 55.56863 | 74.51052 | 18831 ft | 335 kts | 270° |
| 2026-04-25 15:08 | 55.57021 | 74.46954 | 18393 ft | 333 kts | 269° |
| 2026-04-25 15:08 | 55.57178 | 74.42881 | 17910 ft | 332 kts | 269° |
| 2026-04-25 15:08 | 55.57336 | 74.38823 | 17445 ft | 330 kts | 269° |
| 2026-04-25 15:09 | 55.57488 | 74.34791 | 16990 ft | 328 kts | 269° |
| 2026-04-25 15:09 | 55.57639 | 74.30794 | 16539 ft | 326 kts | 269° |
| 2026-04-25 15:09 | 55.57103 | 74.23072 | 15656 ft | 313 kts | 247° |
| 2026-04-25 15:10 | 55.56155 | 74.19651 | 15217 ft | 308 kts | 235° |
| 2026-04-25 15:10 | 55.54829 | 74.16711 | 14784 ft | 306 kts | 225° |
| 2026-04-25 15:10 | 55.51617 | 74.11839 | 13929 ft | 303 kts | 220° |
| 2026-04-25 15:11 | 55.50006 | 74.09445 | 13479 ft | 302 kts | 220° |
| 2026-04-25 15:11 | 55.48399 | 74.07068 | 13024 ft | 301 kts | 220° |
| 2026-04-25 15:11 | 55.46800 | 74.04708 | 12591 ft | 298 kts | 220° |
| 2026-04-25 15:12 | 55.43644 | 74.00039 | 11704 ft | 294 kts | 220° |
| 2026-04-25 15:12 | 55.42085 | 73.97728 | 11271 ft | 293 kts | 219° |
| 2026-04-25 15:12 | 55.40529 | 73.95426 | 10828 ft | 291 kts | 219° |
| 2026-04-25 15:12 | 55.39502 | 73.93910 | 10539 ft | 290 kts | 219° |
| 2026-04-25 15:13 | 55.37481 | 73.90926 | 10317 ft | 276 kts | 219° |
| 2026-04-25 15:13 | 55.34645 | 73.86749 | 10013 ft | 257 kts | 219° |
| 2026-04-25 15:13 | 55.33301 | 73.84772 | 9800 ft | 253 kts | 219° |
| 2026-04-25 15:14 | 55.31958 | 73.82797 | 9678 ft | 252 kts | 219° |
| 2026-04-25 15:14 | 55.30611 | 73.80841 | 9536 ft | 251 kts | 216° |
| 2026-04-25 15:14 | 55.29091 | 73.79319 | 9159 ft | 253 kts | 205° |
| 2026-04-25 15:14 | 55.27464 | 73.78017 | 8712 ft | 253 kts | 205° |
| 2026-04-25 15:15 | 55.25894 | 73.76760 | 8311 ft | 253 kts | 205° |
| 2026-04-25 15:15 | 55.24301 | 73.75486 | 7988 ft | 249 kts | 205° |
| 2026-04-25 15:15 | 55.22730 | 73.74229 | 7592 ft | 248 kts | 205° |
| 2026-04-25 15:15 | 55.21163 | 73.72973 | 7191 ft | 247 kts | 205° |
| 2026-04-25 15:16 | 55.19691 | 73.71793 | 6817 ft | 246 kts | 205° |
| 2026-04-25 15:16 | 55.18269 | 73.70655 | 6596 ft | 241 kts | 205° |
| 2026-04-25 15:16 | 55.15199 | 73.68187 | 5673 ft | 242 kts | 205° |
| 2026-04-25 15:17 | 55.12138 | 73.65728 | 4763 ft | 243 kts | 205° |
| 2026-04-25 15:17 | 55.10597 | 73.64498 | 4219 ft | 246 kts | 205° |
| 2026-04-25 15:17 | 55.08984 | 73.63464 | 3833 ft | 244 kts | 198° |
| 2026-04-25 15:18 | 55.07401 | 73.62627 | 3708 ft | 231 kts | 199° |
| 2026-04-25 15:18 | 55.04519 | 73.61084 | 3583 ft | 203 kts | 199° |
| 2026-04-25 15:18 | 55.03181 | 73.60361 | 3333 ft | 200 kts | 199° |
| 2026-04-25 15:19 | 55.01856 | 73.59641 | 3057 ft | 198 kts | 200° |
| 2026-04-25 15:19 | 55.01045 | 73.58965 | 2907 ft | 193 kts | 218° |
| 2026-04-25 15:19 | 55.00083 | 73.56459 | 2677 ft | 189 kts | 253° |
| 2026-04-25 15:19 | 54.99787 | 73.54258 | 2496 ft | 183 kts | 254° |
| 2026-04-25 15:20 | 54.99514 | 73.52177 | 2360 ft | 171 kts | 253° |
| 2026-04-25 15:20 | 54.99256 | 73.50213 | 2270 ft | 160 kts | 253° |
| 2026-04-25 15:20 | 54.99014 | 73.48373 | 2080 ft | 155 kts | 253° |
| 2026-04-25 15:20 | 54.98780 | 73.46603 | 1887 ft | 145 kts | 254° |
| 2026-04-25 15:21 | 54.98562 | 73.44948 | 1710 ft | 136 kts | 254° |
| 2026-04-25 15:21 | 54.98357 | 73.43399 | 1533 ft | 129 kts | 254° |
| 2026-04-25 15:21 | 54.98156 | 73.41887 | 1362 ft | 128 kts | 254° |
| 2026-04-25 15:21 | 54.97955 | 73.40368 | 1193 ft | 128 kts | 255° |
| 2026-04-25 15:22 | 54.97747 | 73.38812 | 1009 ft | 132 kts | 253° |
| 2026-04-25 15:22 | 54.97542 | 73.37246 | 746 ft | 136 kts | 255° |
| 2026-04-25 15:22 | 54.97327 | 73.35626 | 562 ft | 138 kts | 255° |
| 2026-04-25 15:22 | 54.97109 | 73.33973 | 425 ft | 140 kts | 256° |
| 2026-04-25 15:23 | 54.96890 | 73.32332 | 320 ft | 132 kts | 255° |
| 2026-04-25 15:23 | 54.96711 | 73.30985 | 308 ft | 91 kts | 258° |
| 2026-04-25 15:23 | 54.96600 | 73.30171 | 315 ft | 57 kts | 257° |
| 2026-04-25 15:23 | 54.96517 | 73.29563 | 319 ft | 46 kts | 258° |
| 2026-04-25 15:24 | 54.96459 | 73.29164 | 319 ft | 15 kts | 240° |
| 2026-04-25 15:24 | 54.96396 | 73.29160 | 318 ft | 9 kts | 181° |
| 2026-04-25 15:24 | 54.96329 | 73.29187 | 317 ft | 10 kts | 166° |
| 2026-04-25 15:24 | 54.96281 | 73.29207 | 316 ft | 11 kts | 167° |
| 2026-04-25 15:25 | 54.96173 | 73.29249 | 315 ft | 14 kts | 167° |
| 2026-04-25 15:25 | 54.96085 | 73.29321 | 314 ft | 15 kts | 110° |
| 2026-04-25 15:25 | 54.96099 | 73.29506 | 312 ft | 17 kts | 77° |
| 2026-04-25 15:25 | 54.96127 | 73.29728 | 309 ft | 20 kts | 77° |
| 2026-04-25 15:26 | 54.96161 | 73.29983 | 306 ft | 23 kts | 77° |
| 2026-04-25 15:26 | 54.96202 | 73.30272 | 307 ft | 26 kts | 76° |
| 2026-04-25 15:26 | 54.96242 | 73.30584 | 304 ft | 27 kts | 78° |
| 2026-04-25 15:26 | 54.96286 | 73.30900 | 301 ft | 28 kts | 77° |
| 2026-04-25 15:27 | 54.96330 | 73.31239 | 300 ft | 30 kts | 77° |
| 2026-04-25 15:27 | 54.96374 | 73.31574 | 300 ft | 18 kts | 80° |
| 2026-04-25 15:27 | 54.96295 | 73.31788 | 298 ft | 13 kts | 74° |
| 2026-04-25 15:28 | 54.96326 | 73.31910 | 299 ft | 11 kts | 115° |
| 2026-04-25 15:28 | 54.96298 | 73.31958 | 301 ft | 0 kts | 136° |